createdAt,value
2019-05-06T00:00:01.913Z,3.10
2019-05-06T00:02:34.165Z,3.10
2019-05-06T00:05:06.202Z,3.00
2019-05-06T00:07:38.199Z,3.00
2019-05-06T00:10:27.339Z,3.00
2019-05-06T00:12:59.823Z,3.10
2019-05-06T00:15:31.681Z,3.10
2019-05-06T00:18:04.712Z,3.10
2019-05-06T00:20:37.092Z,3.10
2019-05-06T00:23:17.688Z,3.20
2019-05-06T00:26:07.108Z,3.20
2019-05-06T00:28:45.953Z,3.20
2019-05-06T00:31:19.785Z,3.20
2019-05-06T00:33:53.843Z,3.20
2019-05-06T00:36:25.947Z,3.30
2019-05-06T00:39:02.134Z,3.20
2019-05-06T00:41:36.367Z,3.20
2019-05-06T00:44:07.673Z,3.30
2019-05-06T00:46:40.281Z,3.20
2019-05-06T00:49:14.324Z,3.20
2019-05-06T00:51:46.536Z,3.10
2019-05-06T00:54:21.374Z,3.00
2019-05-06T00:56:54.140Z,3.00
2019-05-06T00:59:26.354Z,2.90
2019-05-06T01:01:58.234Z,2.90
2019-05-06T01:04:30.363Z,2.90
2019-05-06T01:07:03.951Z,2.80
2019-05-06T01:09:37.489Z,2.80
2019-05-06T01:12:10.690Z,2.90
2019-05-06T01:14:47.347Z,2.90
2019-05-06T01:17:19.252Z,2.80
2019-05-06T01:19:54.107Z,2.80
2019-05-06T01:22:26.307Z,2.80
2019-05-06T01:24:58.179Z,2.80
2019-05-06T01:27:30.306Z,2.80
2019-05-06T01:30:04.276Z,2.80
2019-05-06T01:32:35.986Z,2.80
2019-05-06T01:35:08.306Z,2.80
2019-05-06T01:37:44.128Z,2.70
2019-05-06T01:40:25.159Z,2.60
2019-05-06T01:43:03.593Z,2.60
2019-05-06T01:45:35.920Z,2.60
2019-05-06T01:48:08.079Z,2.70
2019-05-06T01:50:39.900Z,2.80
2019-05-06T01:53:14.018Z,2.80
2019-05-06T01:55:46.596Z,2.70
2019-05-06T01:58:18.704Z,2.60
2019-05-06T02:00:50.583Z,2.50
2019-05-06T02:03:24.215Z,2.40
2019-05-06T02:05:56.127Z,2.40
2019-05-06T02:08:28.317Z,2.30
2019-05-06T02:11:00.619Z,2.30
2019-05-06T02:13:34.831Z,2.20
2019-05-06T02:16:06.153Z,2.20
2019-05-06T02:18:38.423Z,2.30
2019-05-06T02:21:15.880Z,2.30
2019-05-06T02:23:53.538Z,2.30
2019-05-06T02:26:25.836Z,2.30
2019-05-06T02:28:59.969Z,2.40
2019-05-06T02:31:54.628Z,2.30
2019-05-06T02:34:36.348Z,2.30
2019-05-06T02:37:25.350Z,2.20
2019-05-06T02:39:57.063Z,2.20
2019-05-06T02:42:28.939Z,2.20
2019-05-06T02:45:04.058Z,2.30
2019-05-06T02:47:43.856Z,2.30
2019-05-06T02:50:18.500Z,2.30
2019-05-06T02:52:53.473Z,2.30
2019-05-06T02:55:24.238Z,2.30
2019-05-06T02:57:56.457Z,2.20
2019-05-06T03:00:28.563Z,2.20
2019-05-06T03:03:02.852Z,2.20
2019-05-06T03:05:35.180Z,2.30
2019-05-06T03:08:07.135Z,2.40
2019-05-06T03:10:39.258Z,2.40
2019-05-06T03:13:14.061Z,2.40
2019-05-06T03:15:45.280Z,2.40
2019-05-06T03:18:17.508Z,2.40
2019-05-06T03:21:07.177Z,2.40
2019-05-06T03:23:43.787Z,2.20
2019-05-06T03:26:16.209Z,2.20
2019-05-06T03:28:48.142Z,2.10
2019-05-06T03:31:25.274Z,2.10
2019-05-06T03:34:16.396Z,2.10
2019-05-06T03:36:34.918Z,2.20
2019-05-06T03:39:03.086Z,2.20
2019-05-06T03:41:35.043Z,2.20
2019-05-06T03:44:07.887Z,2.20
2019-05-06T03:46:57.905Z,2.20
2019-05-06T03:49:33.883Z,2.20
2019-05-06T03:52:06.520Z,2.20
2019-05-06T03:54:39.190Z,2.20
2019-05-06T03:57:13.688Z,2.20
2019-05-06T03:59:45.520Z,2.10
2019-05-06T04:02:18.147Z,2.20
2019-05-06T04:04:55.996Z,2.20
2019-05-06T04:07:24.220Z,2.20
2019-05-06T04:09:56.765Z,2.30
2019-05-06T04:12:29.307Z,2.30
2019-05-06T04:15:03.987Z,2.30
2019-05-06T04:17:56.873Z,2.30
2019-05-06T04:20:43.641Z,2.30
2019-05-06T04:23:37.429Z,2.20
2019-05-06T04:26:17.275Z,2.30
2019-05-06T04:28:49.465Z,2.30
2019-05-06T04:31:22.870Z,2.40
2019-05-06T04:34:08.703Z,2.40
2019-05-06T04:36:28.811Z,2.40
2019-05-06T04:39:03.966Z,2.40
2019-05-06T04:41:35.175Z,2.40
2019-05-06T04:44:07.029Z,2.50
2019-05-06T04:46:39.627Z,2.60
2019-05-06T04:49:14.852Z,2.60
2019-05-06T04:51:45.295Z,2.60
2019-05-06T04:54:17.465Z,2.60
2019-05-06T04:56:49.721Z,2.70
2019-05-06T04:59:23.178Z,2.70
2019-05-06T05:01:55.224Z,2.80
2019-05-06T05:04:32.335Z,2.80
2019-05-06T05:07:03.229Z,2.80
2019-05-06T05:09:34.662Z,2.90
2019-05-06T05:12:13.456Z,3.00
2019-05-06T05:15:03.427Z,3.20
2019-05-06T05:17:57.742Z,3.30
2019-05-06T05:20:37.658Z,3.40
2019-05-06T05:23:03.179Z,3.50
2019-05-06T05:25:35.011Z,3.70
2019-05-06T05:28:06.992Z,3.90
2019-05-06T05:30:39.212Z,4.00
2019-05-06T05:33:12.246Z,4.10
2019-05-06T05:35:44.656Z,4.10
2019-05-06T05:38:16.998Z,4.20
2019-05-06T05:40:48.915Z,4.40
2019-05-06T05:43:32.505Z,4.60
2019-05-06T05:46:04.350Z,4.70
2019-05-06T05:48:52.822Z,4.90
2019-05-06T05:51:25.016Z,5.10
2019-05-06T05:53:57.283Z,5.30
2019-05-06T05:56:29.414Z,5.40
2019-05-06T05:59:03.221Z,5.60
2019-05-06T06:01:35.346Z,5.70
2019-05-06T06:04:07.636Z,5.90
2019-05-06T06:06:39.733Z,6.10
2019-05-06T06:09:12.689Z,6.20
2019-05-06T06:11:49.336Z,6.30
2019-05-06T06:14:47.317Z,6.30
2019-05-06T06:17:37.119Z,6.40
2019-05-06T06:20:27.185Z,6.50
2019-05-06T06:23:03.787Z,6.50
2019-05-06T06:25:36.327Z,6.60
2019-05-06T06:28:08.418Z,6.70
2019-05-06T06:30:51.925Z,6.70
2019-05-06T06:33:24.459Z,6.70
2019-05-06T06:36:14.065Z,6.80
2019-05-06T06:38:59.115Z,7.00
2019-05-06T06:41:32.298Z,7.20
2019-05-06T06:44:07.503Z,7.40
2019-05-06T06:46:39.681Z,7.60
2019-05-06T06:49:12.706Z,7.90
2019-05-06T06:51:45.389Z,8.00
2019-05-06T06:54:17.557Z,8.10
2019-05-06T06:57:09.211Z,8.20
2019-05-06T07:00:04.220Z,8.40
2019-05-06T07:02:55.358Z,8.50
2019-05-06T07:05:42.425Z,8.70
2019-05-06T07:08:14.684Z,8.90
2019-05-06T07:10:46.534Z,9.00
2019-05-06T07:13:18.908Z,9.10
2019-05-06T07:15:52.037Z,9.30
2019-05-06T07:18:24.677Z,9.40
2019-05-06T07:21:13.859Z,9.50
2019-05-06T07:23:44.478Z,9.50
2019-05-06T07:26:17.959Z,9.80
2019-05-06T07:28:52.681Z,10.10
2019-05-06T07:31:26.753Z,10.40
2019-05-06T07:33:58.472Z,10.40
2019-05-06T07:36:32.256Z,10.50
2019-05-06T07:39:04.744Z,10.60
2019-05-06T07:41:45.821Z,10.70
2019-05-06T07:44:29.151Z,10.90
2019-05-06T07:47:08.292Z,11.10
2019-05-06T07:49:43.108Z,11.30
2019-05-06T07:52:17.153Z,11.40
2019-05-06T07:54:48.029Z,11.50
2019-05-06T07:57:22.021Z,11.70
2019-05-06T07:59:54.106Z,11.90
2019-05-06T08:02:26.021Z,11.90
2019-05-06T08:04:58.594Z,12.00
2019-05-06T08:07:30.323Z,12.00
2019-05-06T08:10:02.677Z,12.20
2019-05-06T08:12:35.157Z,12.30
2019-05-06T08:15:07.463Z,12.40
2019-05-06T08:17:42.627Z,12.40
2019-05-06T08:20:15.361Z,12.50
2019-05-06T08:23:12.609Z,12.40
2019-05-06T08:25:52.770Z,12.40
2019-05-06T08:28:37.552Z,12.40
2019-05-06T08:30:57.829Z,12.60
2019-05-06T08:33:32.579Z,12.70
2019-05-06T08:36:11.481Z,13.00
2019-05-06T08:38:58.056Z,13.30
2019-05-06T08:41:32.676Z,13.50
2019-05-06T08:44:04.539Z,13.60
2019-05-06T08:46:36.467Z,13.50
2019-05-06T08:49:08.608Z,13.50
2019-05-06T08:52:15.020Z,13.40
2019-05-06T08:54:50.214Z,13.30
2019-05-06T08:57:22.780Z,13.50
2019-05-06T08:59:54.863Z,13.60
2019-05-06T09:02:27.342Z,13.90
2019-05-06T09:04:59.328Z,14.10
2019-05-06T09:07:32.095Z,14.10
2019-05-06T09:10:04.217Z,14.10
2019-05-06T09:12:36.773Z,14.40
2019-05-06T09:15:08.783Z,14.50
2019-05-06T09:17:42.026Z,14.40
2019-05-06T09:20:14.313Z,14.20
2019-05-06T09:22:46.608Z,13.90
2019-05-06T09:25:18.608Z,13.70
2019-05-06T09:27:55.764Z,13.50
2019-05-06T09:30:43.232Z,13.10
2019-05-06T09:33:18.085Z,12.40
2019-05-06T09:35:52.750Z,12.00
2019-05-06T09:38:24.904Z,11.60
2019-05-06T09:40:56.773Z,11.30
2019-05-06T09:43:29.381Z,11.30
2019-05-06T09:46:02.486Z,11.30
2019-05-06T09:48:52.892Z,11.20
2019-05-06T09:51:24.967Z,11.20
2019-05-06T09:54:05.253Z,11.10
2019-05-06T09:56:45.120Z,11.30
2019-05-06T09:59:17.010Z,11.50
2019-05-06T10:01:49.170Z,11.70
2019-05-06T10:04:21.553Z,11.80
2019-05-06T10:06:59.443Z,11.80
2019-05-06T10:09:27.354Z,11.70
2019-05-06T10:11:59.261Z,11.40
2019-05-06T10:14:43.766Z,11.20
2019-05-06T10:17:15.921Z,11.10
2019-05-06T10:19:47.823Z,10.90
2019-05-06T10:22:20.077Z,10.80
2019-05-06T10:24:52.325Z,10.70
2019-05-06T10:27:24.220Z,10.80
2019-05-06T10:30:03.652Z,10.70
2019-05-06T10:32:43.414Z,10.60
2019-05-06T10:35:16.242Z,10.50
2019-05-06T10:38:59.265Z,10.40
2019-05-06T10:41:35.121Z,10.50
2019-05-06T10:44:38.051Z,10.60
2019-05-06T10:47:12.030Z,10.80
2019-05-06T10:49:44.173Z,11.20
2019-05-06T10:52:24.308Z,11.50
2019-05-06T10:54:56.209Z,11.90
2019-05-06T10:57:36.395Z,12.20
2019-05-06T11:00:12.394Z,12.10
2019-05-06T11:03:22.663Z,11.90
2019-05-06T11:05:55.387Z,12.20
2019-05-06T11:08:27.575Z,12.50
2019-05-06T11:11:14.499Z,12.30
2019-05-06T11:13:34.150Z,11.90
2019-05-06T11:16:06.603Z,11.70
2019-05-06T11:18:38.942Z,11.50
2019-05-06T11:21:12.735Z,11.40
2019-05-06T11:23:44.904Z,11.40
2019-05-06T11:26:17.042Z,11.70
2019-05-06T11:28:52.612Z,12.00
2019-05-06T11:31:43.780Z,12.50
2019-05-06T11:34:33.288Z,12.80
2019-05-06T11:37:26.153Z,13.30
2019-05-06T11:39:58.369Z,14.10
2019-05-06T11:42:35.544Z,14.70
2019-05-06T11:45:06.474Z,15.20
2019-05-06T11:47:38.664Z,15.70
2019-05-06T11:50:12.943Z,15.90
2019-05-06T11:52:45.815Z,15.80
2019-05-06T11:55:28.777Z,16.10
2019-05-06T11:57:52.902Z,16.60
2019-05-06T12:00:29.414Z,16.90
2019-05-06T12:03:02.360Z,16.30
2019-05-06T12:05:35.826Z,14.80
2019-05-06T12:08:09.227Z,13.60
2019-05-06T12:10:42.419Z,13.40
2019-05-06T12:13:14.906Z,13.30
2019-05-06T12:15:47.756Z,13.10
2019-05-06T12:18:22.897Z,13.20
2019-05-06T12:20:53.998Z,13.00
2019-05-06T12:23:26.514Z,13.00
2019-05-06T12:25:58.441Z,12.60
2019-05-06T12:28:32.657Z,12.40
2019-05-06T12:31:04.246Z,12.40
2019-05-06T12:33:42.693Z,12.50
2019-05-06T12:36:18.943Z,12.50
2019-05-06T12:39:15.694Z,12.90
2019-05-06T12:42:07.401Z,13.10
2019-05-06T12:44:41.813Z,13.40
2019-05-06T12:47:36.124Z,13.30
2019-05-06T12:50:08.202Z,13.10
2019-05-06T12:52:40.156Z,13.10
2019-05-06T12:55:21.162Z,13.40
2019-05-06T12:57:46.897Z,13.50
2019-05-06T13:00:19.897Z,13.30
2019-05-06T13:02:53.164Z,13.20
2019-05-06T13:05:25.294Z,13.20
2019-05-06T13:07:57.592Z,13.10
2019-05-06T13:10:29.809Z,12.90
2019-05-06T13:13:05.789Z,12.80
2019-05-06T13:15:39.454Z,12.90
2019-05-06T13:18:14.297Z,12.80
2019-05-06T13:20:49.715Z,12.30
2019-05-06T13:23:34.641Z,11.80
2019-05-06T13:26:04.497Z,11.30
2019-05-06T13:28:42.580Z,10.80
2019-05-06T13:31:21.606Z,10.50
2019-05-06T13:33:55.701Z,10.10
2019-05-06T13:36:28.081Z,10.10
2019-05-06T13:39:10.726Z,10.20
2019-05-06T13:41:33.962Z,10.10
2019-05-06T13:44:16.421Z,10.10
2019-05-06T13:46:53.611Z,10.10
2019-05-06T13:49:57.101Z,10.00
2019-05-06T13:52:35.883Z,10.00
2019-05-06T13:55:08.895Z,9.70
2019-05-06T13:57:42.795Z,9.70
2019-05-06T14:00:15.493Z,9.70
2019-05-06T14:02:55.842Z,9.80
2019-05-06T14:05:28.479Z,10.00
2019-05-06T14:08:04.279Z,10.10
2019-05-06T14:10:35.505Z,10.20
2019-05-06T14:13:07.387Z,10.40
2019-05-06T14:15:42.101Z,10.50
2019-05-06T14:18:14.471Z,10.60
2019-05-06T14:20:46.685Z,10.70
2019-05-06T14:23:19.026Z,10.80
2019-05-06T14:26:15.977Z,10.70
2019-05-06T14:28:54.712Z,10.80
2019-05-06T14:31:32.944Z,10.90
2019-05-06T14:34:05.047Z,10.90
2019-05-06T14:36:37.616Z,10.90
2019-05-06T14:39:16.130Z,11.20
2019-05-06T14:41:53.451Z,11.60
2019-05-06T14:44:25.857Z,12.10
2019-05-06T14:47:19.531Z,12.50
2019-05-06T14:49:54.198Z,13.00
2019-05-06T14:52:26.468Z,14.50
2019-05-06T14:55:04.349Z,15.60
2019-05-06T14:57:37.254Z,16.60
2019-05-06T15:00:12.191Z,17.00
2019-05-06T15:02:44.663Z,16.90
2019-05-06T15:05:17.274Z,16.50
2019-05-06T15:07:49.503Z,16.10
2019-05-06T15:10:26.714Z,15.50
2019-05-06T15:12:59.124Z,15.20
2019-05-06T15:15:32.428Z,14.90
2019-05-06T15:18:04.547Z,14.80
2019-05-06T15:20:43.279Z,14.60
2019-05-06T15:23:15.994Z,14.30
2019-05-06T15:25:47.980Z,14.00
2019-05-06T15:28:22.484Z,13.70
2019-05-06T15:31:13.246Z,13.60
2019-05-06T15:33:47.977Z,13.50
2019-05-06T15:36:26.897Z,13.30
2019-05-06T15:38:59.651Z,13.40
2019-05-06T15:41:32.565Z,13.70
2019-05-06T15:44:06.117Z,13.80
2019-05-06T15:46:38.503Z,14.00
2019-05-06T15:49:11.389Z,14.30
2019-05-06T15:51:44.139Z,14.50
2019-05-06T15:54:16.689Z,14.60
2019-05-06T15:56:49.456Z,14.90
2019-05-06T15:59:22.981Z,15.50
2019-05-06T16:01:55.516Z,15.70
2019-05-06T16:04:27.478Z,15.50
2019-05-06T16:06:59.664Z,15.40
2019-05-06T16:09:32.975Z,15.50
2019-05-06T16:12:05.944Z,15.40
2019-05-06T16:14:37.934Z,15.70
2019-05-06T16:17:12.233Z,15.80
2019-05-06T16:19:44.097Z,15.50
2019-05-06T16:22:17.871Z,15.00
2019-05-06T16:24:56.005Z,14.90
2019-05-06T16:27:28.262Z,15.00
2019-05-06T16:30:03.146Z,15.00
2019-05-06T16:32:35.494Z,14.80
2019-05-06T16:35:07.638Z,14.60
2019-05-06T16:37:42.093Z,14.30
2019-05-06T16:40:15.693Z,13.80
2019-05-06T16:42:50.238Z,13.70
2019-05-06T16:45:23.508Z,13.50
2019-05-06T16:47:58.616Z,13.60
2019-05-06T16:50:38.594Z,13.60
2019-05-06T16:53:12.208Z,13.50
2019-05-06T16:56:02.361Z,13.30
2019-05-06T16:58:36.902Z,13.30
2019-05-06T17:01:08.996Z,13.10
2019-05-06T17:03:55.290Z,13.00
2019-05-06T17:06:36.272Z,13.00
2019-05-06T17:09:20.920Z,12.90
2019-05-06T17:11:46.340Z,12.70
2019-05-06T17:14:18.871Z,12.60
2019-05-06T17:16:52.736Z,12.50
2019-05-06T17:19:25.111Z,12.40
2019-05-06T17:21:57.303Z,12.20
2019-05-06T17:24:29.931Z,12.10
2019-05-06T17:27:02.862Z,11.80
2019-05-06T17:29:53.086Z,11.60
2019-05-06T17:32:33.304Z,11.60
2019-05-06T17:35:06.155Z,11.40
2019-05-06T17:38:03.090Z,11.40
2019-05-06T17:40:36.746Z,11.40
2019-05-06T17:43:09.430Z,11.50
2019-05-06T17:46:01.876Z,11.50
2019-05-06T17:48:36.131Z,11.60
2019-05-06T17:51:09.462Z,11.60
2019-05-06T17:53:43.777Z,11.60
2019-05-06T17:56:16.270Z,11.60
2019-05-06T17:58:49.079Z,11.60
2019-05-06T18:01:26.167Z,11.60
2019-05-06T18:03:59.592Z,11.60
2019-05-06T18:06:32.958Z,11.60
2019-05-06T18:09:08.466Z,11.60
2019-05-06T18:11:42.449Z,11.60
2019-05-06T18:14:14.790Z,11.50
2019-05-06T18:16:47.417Z,11.60
2019-05-06T18:19:22.398Z,11.60
2019-05-06T18:21:54.590Z,11.40
2019-05-06T18:24:27.743Z,11.40
2019-05-06T18:26:59.662Z,11.40
2019-05-06T18:29:36.367Z,11.30
2019-05-06T18:32:12.613Z,11.30
2019-05-06T18:34:45.065Z,11.20
2019-05-06T18:37:17.702Z,11.10
2019-05-06T18:39:50.250Z,11.00
2019-05-06T18:42:23.631Z,11.00
2019-05-06T18:44:56.675Z,11.00
2019-05-06T18:47:29.655Z,10.80
2019-05-06T18:50:02.522Z,10.80
2019-05-06T18:52:34.880Z,10.80
2019-05-06T18:55:06.974Z,10.60
2019-05-06T18:57:39.467Z,10.50
2019-05-06T19:00:12.005Z,10.50
2019-05-06T19:02:44.209Z,10.40
2019-05-06T19:05:24.936Z,10.30
2019-05-06T19:07:56.385Z,10.20
2019-05-06T19:10:33.040Z,10.20
2019-05-06T19:13:04.318Z,10.20
2019-05-06T19:15:36.864Z,10.10
2019-05-06T19:18:08.892Z,10.00
2019-05-06T19:20:42.463Z,10.00
2019-05-06T19:23:17.731Z,10.00
2019-05-06T19:25:51.891Z,9.90
2019-05-06T19:28:24.361Z,9.80
2019-05-06T19:30:56.984Z,9.70
2019-05-06T19:33:34.916Z,9.50
2019-05-06T19:36:07.437Z,9.40
2019-05-06T19:38:39.712Z,9.40
2019-05-06T19:41:12.819Z,9.40
2019-05-06T19:43:44.919Z,9.40
2019-05-06T19:46:18.207Z,9.40
2019-05-06T19:48:52.437Z,9.30
2019-05-06T19:51:24.220Z,9.30
2019-05-06T19:53:56.495Z,9.30
2019-05-06T19:56:31.941Z,9.30
2019-05-06T19:59:04.081Z,9.30
2019-05-06T20:01:36.525Z,9.30
2019-05-06T20:04:09.425Z,9.40
2019-05-06T20:06:54.943Z,9.30
2019-05-06T20:09:39.069Z,9.40
2019-05-06T20:12:18.105Z,9.50
2019-05-06T20:14:52.360Z,9.50
2019-05-06T20:17:24.650Z,9.50
2019-05-06T20:19:57.708Z,9.50
2019-05-06T20:22:32.583Z,9.50
2019-05-06T20:25:04.844Z,9.50
2019-05-06T20:27:38.730Z,9.60
2019-05-06T20:30:10.680Z,9.50
2019-05-06T20:32:43.348Z,9.30
2019-05-06T20:35:15.331Z,9.30
2019-05-06T20:37:47.756Z,9.30
2019-05-06T20:40:25.896Z,9.30
2019-05-06T20:42:58.432Z,9.30
2019-05-06T20:45:35.075Z,9.30
2019-05-06T20:48:05.827Z,9.30
2019-05-06T20:50:38.095Z,9.30
2019-05-06T20:53:12.169Z,9.10
2019-05-06T20:55:44.316Z,8.90
2019-05-06T20:58:17.010Z,8.90
2019-05-06T21:00:49.251Z,9.00
2019-05-06T21:03:22.272Z,8.90
2019-05-06T21:05:54.225Z,8.90
2019-05-06T21:08:27.424Z,8.80
2019-05-06T21:10:59.555Z,8.80
2019-05-06T21:13:34.929Z,8.80
2019-05-06T21:16:05.516Z,8.80
2019-05-06T21:18:37.479Z,8.80
2019-05-06T21:21:09.619Z,8.70
2019-05-06T21:23:42.754Z,8.60
2019-05-06T21:26:17.146Z,8.60
2019-05-06T21:28:52.822Z,8.50
2019-05-06T21:31:25.404Z,8.50
2019-05-06T21:34:03.567Z,8.40
2019-05-06T21:36:35.809Z,8.50
2019-05-06T21:39:16.514Z,8.50
2019-05-06T21:41:57.655Z,8.60
2019-05-06T21:44:32.359Z,8.60
2019-05-06T21:47:04.811Z,8.60
2019-05-06T21:49:37.174Z,8.50
2019-05-06T21:52:09.676Z,8.50
2019-05-06T21:54:43.453Z,8.50
2019-05-06T21:57:16.888Z,8.60
2019-05-06T21:59:49.643Z,8.60
2019-05-06T22:02:23.035Z,8.60
2019-05-06T22:04:55.795Z,8.60
2019-05-06T22:07:28.003Z,8.50
2019-05-06T22:10:00.967Z,8.50
2019-05-06T22:12:32.850Z,8.40
2019-05-06T22:15:05.683Z,8.30
2019-05-06T22:17:42.737Z,8.20
2019-05-06T22:20:14.518Z,8.10
2019-05-06T22:22:46.670Z,8.00
2019-05-06T22:25:26.879Z,7.90
2019-05-06T22:28:02.351Z,7.90
2019-05-06T22:30:34.682Z,7.70
2019-05-06T22:33:06.977Z,7.60
2019-05-06T22:35:39.112Z,7.50
2019-05-06T22:38:15.063Z,7.40
2019-05-06T22:40:47.139Z,7.30
2019-05-06T22:43:19.305Z,7.10
2019-05-06T22:45:53.297Z,6.90
2019-05-06T22:48:25.304Z,6.80
2019-05-06T22:50:57.382Z,6.70
2019-05-06T22:53:29.258Z,6.60
2019-05-06T22:56:03.447Z,6.40
2019-05-06T22:58:35.321Z,6.30
2019-05-06T23:01:14.730Z,6.10
2019-05-06T23:03:52.574Z,6.00
2019-05-06T23:06:25.102Z,6.00
2019-05-06T23:08:56.971Z,6.00
2019-05-06T23:11:28.890Z,6.00
2019-05-06T23:14:02.742Z,5.90
2019-05-06T23:16:35.220Z,5.90
2019-05-06T23:19:07.365Z,5.90
2019-05-06T23:21:40.012Z,5.80
2019-05-06T23:24:13.108Z,5.90
2019-05-06T23:26:45.991Z,5.70
2019-05-06T23:29:18.223Z,5.60
2019-05-06T23:31:52.122Z,5.60
2019-05-06T23:34:24.224Z,5.60
2019-05-06T23:37:23.522Z,5.50
2019-05-06T23:40:52.075Z,5.50
2019-05-06T23:44:17.405Z,5.40
2019-05-06T23:47:43.686Z,5.20
2019-05-06T23:51:09.715Z,5.00
2019-05-06T23:54:36.002Z,4.80
2019-05-06T23:57:05.652Z,4.70
2019-05-06T23:59:37.501Z,4.60
